createdAt,value
2017-10-29T00:00:42.059Z,989.15
2017-10-29T00:01:42.059Z,989.17
2017-10-29T00:02:42.053Z,989.25
2017-10-29T00:03:42.049Z,989.3
2017-10-29T00:04:42.058Z,989.29
2017-10-29T00:05:42.044Z,989.15
2017-10-29T00:06:42.039Z,989.12
2017-10-29T00:07:42.035Z,988.95
2017-10-29T00:08:42.046Z,988.9
2017-10-29T00:09:42.028Z,988.85
2017-10-29T00:10:42.027Z,988.79
2017-10-29T00:11:42.021Z,988.88
2017-10-29T00:12:42.018Z,988.99
2017-10-29T00:13:42.014Z,988.81
2017-10-29T00:14:42.059Z,988.83
2017-10-29T00:15:42.008Z,988.78
2017-10-29T00:16:42.003Z,988.74
2017-10-29T00:17:42.000Z,988.69
2017-10-29T00:18:41.996Z,988.64
2017-10-29T00:19:41.993Z,988.62
2017-10-29T00:20:41.994Z,988.68
2017-10-29T00:21:41.987Z,988.64
2017-10-29T00:22:41.988Z,988.72
2017-10-29T00:23:41.979Z,988.71
2017-10-29T00:24:41.979Z,988.71
2017-10-29T00:25:41.971Z,988.69
2017-10-29T00:26:41.967Z,988.49
2017-10-29T00:27:41.963Z,988.39
2017-10-29T00:28:41.972Z,988.35
2017-10-29T00:29:42.977Z,988.34
2017-10-29T00:30:41.955Z,988.35
2017-10-29T00:31:41.950Z,988.26
2017-10-29T00:32:41.948Z,988.18
2017-10-29T00:33:41.944Z,988.13
2017-10-29T00:34:41.947Z,988.1
2017-10-29T00:35:41.936Z,987.96
2017-10-29T00:36:41.933Z,988.04
2017-10-29T00:37:41.931Z,988.01
2017-10-29T00:38:41.927Z,988.07
2017-10-29T00:39:41.924Z,988.14
2017-10-29T00:40:41.921Z,988.09
2017-10-29T00:41:41.918Z,988.04
2017-10-29T00:42:41.918Z,988.02
2017-10-29T00:43:41.911Z,987.98
2017-10-29T00:44:41.908Z,988
2017-10-29T00:45:41.903Z,987.93
2017-10-29T00:46:41.900Z,987.87
2017-10-29T00:47:41.897Z,987.88
2017-10-29T00:48:41.893Z,987.89
2017-10-29T00:49:41.890Z,987.83
2017-10-29T00:50:41.924Z,987.87
2017-10-29T00:51:41.884Z,987.78
2017-10-29T00:52:41.879Z,987.75
2017-10-29T00:53:41.875Z,987.78
2017-10-29T00:54:41.877Z,987.71
2017-10-29T00:55:41.867Z,987.72
2017-10-29T00:56:41.865Z,987.72
2017-10-29T00:57:41.863Z,987.7
2017-10-29T00:58:41.863Z,987.67
2017-10-29T00:59:41.856Z,987.76
2017-10-29T01:00:41.853Z,987.67
2017-10-29T01:01:41.856Z,987.62
2017-10-29T01:02:41.845Z,987.65
2017-10-29T01:03:41.849Z,987.65
2017-10-29T01:04:41.842Z,987.62
2017-10-29T01:05:41.834Z,987.61
2017-10-29T01:06:41.834Z,987.59
2017-10-29T01:07:41.826Z,987.66
2017-10-29T01:08:41.824Z,987.6
2017-10-29T01:09:41.820Z,987.61
2017-10-29T01:10:41.816Z,987.55
2017-10-29T01:11:41.814Z,987.55
2017-10-29T01:12:41.815Z,987.52
2017-10-29T01:13:41.805Z,987.5
2017-10-29T01:14:41.804Z,987.45
2017-10-29T01:15:41.799Z,987.46
2017-10-29T01:16:41.800Z,987.37
2017-10-29T01:17:41.804Z,987.54
2017-10-29T01:18:41.797Z,987.43
2017-10-29T01:19:41.819Z,987.43
2017-10-29T01:20:41.898Z,987.53
2017-10-29T01:21:41.781Z,987.41
2017-10-29T01:22:41.830Z,987.45
2017-10-29T01:23:41.773Z,987.45
2017-10-29T01:24:41.793Z,987.58
2017-10-29T01:25:41.764Z,987.41
2017-10-29T01:26:41.760Z,987.34
2017-10-29T01:27:41.757Z,987.31
2017-10-29T01:28:41.754Z,987.06
2017-10-29T01:29:41.755Z,987.16
2017-10-29T01:30:41.748Z,987.2
2017-10-29T01:31:41.744Z,987.06
2017-10-29T01:32:41.740Z,987.08
2017-10-29T01:33:41.737Z,987.02
2017-10-29T01:34:41.736Z,987.12
2017-10-29T01:35:41.728Z,987.21
2017-10-29T01:36:41.734Z,987.15
2017-10-29T01:37:41.722Z,987.15
2017-10-29T01:38:41.721Z,987.18
2017-10-29T01:39:41.714Z,987.19
2017-10-29T01:40:41.710Z,987.27
2017-10-29T01:41:41.708Z,987.17
2017-10-29T01:42:41.706Z,987.14
2017-10-29T01:43:41.705Z,987.32
2017-10-29T01:44:41.706Z,987.28
2017-10-29T01:45:41.702Z,987.26
2017-10-29T01:46:41.689Z,987.21
2017-10-29T01:47:41.687Z,987.31
2017-10-29T01:48:41.682Z,987.26
2017-10-29T01:49:41.680Z,987.2
2017-10-29T01:50:41.675Z,987.11
2017-10-29T01:51:41.671Z,987.2
2017-10-29T01:52:41.669Z,987.18
2017-10-29T01:53:41.664Z,987.09
2017-10-29T01:54:41.660Z,987.06
2017-10-29T01:55:41.658Z,987.08
2017-10-29T01:56:41.653Z,986.89
2017-10-29T01:57:41.650Z,986.85
2017-10-29T01:58:41.659Z,986.88
2017-10-29T01:59:41.643Z,986.76
2017-10-29T02:00:41.638Z,986.88
2017-10-29T02:01:41.634Z,986.71
2017-10-29T02:02:41.633Z,986.75
2017-10-29T02:03:41.628Z,986.6
2017-10-29T02:04:41.624Z,986.63
2017-10-29T02:05:41.621Z,986.57
2017-10-29T02:06:41.618Z,986.55
2017-10-29T02:07:41.616Z,986.61
2017-10-29T02:08:41.612Z,986.6
2017-10-29T02:09:41.608Z,986.49
2017-10-29T02:10:41.604Z,986.55
2017-10-29T02:11:41.600Z,986.54
2017-10-29T02:12:41.597Z,986.59
2017-10-29T02:13:41.598Z,986.45
2017-10-29T02:14:41.603Z,986.42
2017-10-29T02:15:41.586Z,986.48
2017-10-29T02:16:41.583Z,986.44
2017-10-29T02:17:41.580Z,986.37
2017-10-29T02:18:41.574Z,986.44
2017-10-29T02:19:41.571Z,986.4
2017-10-29T02:20:41.573Z,986.56
2017-10-29T02:21:41.574Z,986.44
2017-10-29T02:22:41.561Z,986.46
2017-10-29T02:23:41.558Z,986.44
2017-10-29T02:24:41.554Z,986.49
2017-10-29T02:25:42.356Z,986.34
2017-10-29T02:26:41.547Z,986.26
2017-10-29T02:27:41.544Z,986.23
2017-10-29T02:28:41.566Z,986.19
2017-10-29T02:29:41.542Z,986.1
2017-10-29T02:30:41.540Z,986.19
2017-10-29T02:31:41.532Z,985.97
2017-10-29T02:32:41.543Z,985.96
2017-10-29T02:33:41.542Z,986.01
2017-10-29T02:34:41.524Z,986.07
2017-10-29T02:35:41.514Z,985.97
2017-10-29T02:36:41.511Z,985.96
2017-10-29T02:37:41.507Z,986.03
2017-10-29T02:38:41.504Z,985.85
2017-10-29T02:39:41.500Z,985.94
2017-10-29T02:40:41.505Z,986.02
2017-10-29T02:41:41.493Z,985.95
2017-10-29T02:42:41.489Z,985.87
2017-10-29T02:43:41.488Z,985.92
2017-10-29T02:44:41.485Z,986.03
2017-10-29T02:45:41.491Z,986.03
2017-10-29T02:46:41.492Z,986.1
2017-10-29T02:47:41.478Z,986.09
2017-10-29T02:48:41.470Z,986.06
2017-10-29T02:49:41.463Z,986.02
2017-10-29T02:50:41.461Z,985.96
2017-10-29T02:51:41.463Z,985.93
2017-10-29T02:52:41.453Z,985.91
2017-10-29T02:53:41.449Z,985.87
2017-10-29T02:54:41.451Z,985.83
2017-10-29T02:55:41.441Z,985.84
2017-10-29T02:56:41.438Z,985.82
2017-10-29T02:57:41.436Z,985.76
2017-10-29T02:58:41.432Z,985.8
2017-10-29T02:59:41.431Z,985.81
2017-10-29T03:00:41.423Z,985.64
2017-10-29T03:01:41.419Z,985.82
2017-10-29T03:02:41.415Z,985.48
2017-10-29T03:03:41.411Z,985.67
2017-10-29T03:04:41.409Z,985.82
2017-10-29T03:05:41.406Z,985.62
2017-10-29T03:06:41.400Z,985.75
2017-10-29T03:07:41.397Z,985.64
2017-10-29T03:08:41.397Z,985.74
2017-10-29T03:09:41.391Z,985.95
2017-10-29T03:10:41.388Z,985.6
2017-10-29T03:11:41.383Z,985.57
2017-10-29T03:12:41.379Z,985.62
2017-10-29T03:13:41.375Z,985.73
2017-10-29T03:14:41.371Z,985.55
2017-10-29T03:15:41.368Z,985.76
2017-10-29T03:16:41.367Z,985.67
2017-10-29T03:17:41.359Z,985.66
2017-10-29T03:18:41.358Z,985.6
2017-10-29T03:19:41.351Z,985.58
2017-10-29T03:20:41.350Z,985.68
2017-10-29T03:21:41.345Z,985.54
2017-10-29T03:22:41.342Z,985.54
2017-10-29T03:23:41.338Z,985.55
2017-10-29T03:24:41.335Z,985.42
2017-10-29T03:25:41.331Z,985.48
2017-10-29T03:26:41.327Z,985.47
2017-10-29T03:27:41.324Z,985.43
2017-10-29T03:28:41.321Z,985.5
2017-10-29T03:29:41.316Z,985.39
2017-10-29T03:30:41.313Z,985.46
2017-10-29T03:31:41.313Z,985.42
2017-10-29T03:32:41.313Z,985.3
2017-10-29T03:33:41.316Z,985.29
2017-10-29T03:34:41.298Z,985.23
2017-10-29T03:35:41.295Z,985.12
2017-10-29T03:36:41.295Z,985.14
2017-10-29T03:37:41.288Z,985.17
2017-10-29T03:38:41.283Z,985.23
2017-10-29T03:39:41.281Z,985.16
2017-10-29T03:40:41.277Z,985.16
2017-10-29T03:41:41.278Z,985.1
2017-10-29T03:42:41.272Z,985.03
2017-10-29T03:43:41.272Z,985
2017-10-29T03:44:41.273Z,984.91
2017-10-29T03:45:41.268Z,984.99
2017-10-29T03:46:41.258Z,984.91
2017-10-29T03:47:41.259Z,984.98
2017-10-29T03:48:41.252Z,984.96
2017-10-29T03:49:41.247Z,984.87
2017-10-29T03:50:41.243Z,984.87
2017-10-29T03:51:41.242Z,984.79
2017-10-29T03:52:41.237Z,984.88
2017-10-29T03:53:41.232Z,984.81
2017-10-29T03:54:41.229Z,984.86
2017-10-29T03:55:41.226Z,984.74
2017-10-29T03:56:41.222Z,984.76
2017-10-29T03:57:41.223Z,984.66
2017-10-29T03:58:41.216Z,984.72
2017-10-29T03:59:41.213Z,984.78
2017-10-29T04:00:41.210Z,984.58
2017-10-29T04:01:44.659Z,984.67
2017-10-29T04:02:41.202Z,984.67
2017-10-29T04:03:41.202Z,984.68
2017-10-29T04:04:41.194Z,984.77
2017-10-29T04:05:41.192Z,984.64
2017-10-29T04:06:41.187Z,984.84
2017-10-29T04:07:41.185Z,984.7
2017-10-29T04:08:41.180Z,984.79
2017-10-29T04:09:41.177Z,984.86
2017-10-29T04:10:41.175Z,984.83
2017-10-29T04:11:41.171Z,984.82
2017-10-29T04:12:41.167Z,984.67
2017-10-29T04:13:41.164Z,984.74
2017-10-29T04:14:41.161Z,984.7
2017-10-29T04:15:41.156Z,984.53
2017-10-29T04:16:41.153Z,984.65
2017-10-29T04:17:41.149Z,984.72
2017-10-29T04:18:41.147Z,984.61
2017-10-29T04:19:41.144Z,984.57
2017-10-29T04:20:41.141Z,984.53
2017-10-29T04:21:41.136Z,984.51
2017-10-29T04:22:41.132Z,984.65
2017-10-29T04:23:41.132Z,984.46
2017-10-29T04:24:41.124Z,984.43
2017-10-29T04:25:41.127Z,984.38
2017-10-29T04:26:41.117Z,984.53
2017-10-29T04:27:41.121Z,984.47
2017-10-29T04:28:41.112Z,984.52
2017-10-29T04:29:41.107Z,984.44
2017-10-29T04:30:41.105Z,984.34
2017-10-29T04:31:41.100Z,984.37
2017-10-29T04:32:41.097Z,984.3
2017-10-29T04:33:41.095Z,984.36
2017-10-29T04:34:41.089Z,984.34
2017-10-29T04:35:41.108Z,984.23
2017-10-29T04:36:41.087Z,984.27
2017-10-29T04:37:41.109Z,984.3
2017-10-29T04:38:41.076Z,984.29
2017-10-29T04:39:41.074Z,984.36
2017-10-29T04:40:41.083Z,984.36
2017-10-29T04:41:41.069Z,984.26
2017-10-29T04:42:41.061Z,984.33
2017-10-29T04:43:41.058Z,984.39
2017-10-29T04:44:41.055Z,984.27
2017-10-29T04:45:41.055Z,984.27
2017-10-29T04:46:41.046Z,984.35
2017-10-29T04:47:42.123Z,984.21
2017-10-29T04:48:41.040Z,984.22
2017-10-29T04:49:41.036Z,984.22
2017-10-29T04:50:41.039Z,984.29
2017-10-29T04:51:41.039Z,984.24
2017-10-29T04:52:41.030Z,984.21
2017-10-29T04:53:41.021Z,984.09
2017-10-29T04:54:41.018Z,983.97
2017-10-29T04:55:41.014Z,984.06
2017-10-29T04:56:41.015Z,984.03
2017-10-29T04:57:41.006Z,984.05
2017-10-29T04:58:41.003Z,984.05
2017-10-29T04:59:40.999Z,984.04
2017-10-29T05:00:40.996Z,984.04
2017-10-29T05:01:40.991Z,984
2017-10-29T05:02:40.989Z,983.99
2017-10-29T05:03:40.985Z,983.91
2017-10-29T05:04:40.983Z,983.89
2017-10-29T05:05:40.982Z,984
2017-10-29T05:06:40.979Z,983.8
2017-10-29T05:07:40.975Z,983.72
2017-10-29T05:08:40.965Z,983.69
2017-10-29T05:09:40.963Z,983.77
2017-10-29T05:10:40.957Z,983.73
2017-10-29T05:11:40.955Z,983.69
2017-10-29T05:12:40.953Z,983.62
2017-10-29T05:13:40.951Z,983.62
2017-10-29T05:14:40.944Z,983.68
2017-10-29T05:15:40.946Z,983.46
2017-10-29T05:16:40.937Z,983.55
2017-10-29T05:17:40.934Z,983.61
2017-10-29T05:18:40.933Z,983.51
2017-10-29T05:19:40.929Z,983.61
2017-10-29T05:20:40.925Z,983.49
2017-10-29T05:21:40.958Z,983.6
2017-10-29T05:22:40.918Z,983.51
2017-10-29T05:23:40.913Z,983.67
2017-10-29T05:24:40.910Z,983.6
2017-10-29T05:25:40.903Z,983.42
2017-10-29T05:26:40.902Z,983.31
2017-10-29T05:27:40.898Z,983.16
2017-10-29T05:28:40.905Z,983.38
2017-10-29T05:29:40.890Z,983.38
2017-10-29T05:30:40.887Z,983.3
2017-10-29T05:31:40.887Z,983.41
2017-10-29T05:32:40.880Z,983.43
2017-10-29T05:33:40.877Z,983.42
2017-10-29T05:34:40.874Z,983.5
2017-10-29T05:35:40.870Z,983.61
2017-10-29T05:36:40.865Z,983.69
2017-10-29T05:37:40.865Z,983.75
2017-10-29T05:38:40.859Z,983.77
2017-10-29T05:39:40.855Z,983.81
2017-10-29T05:40:40.851Z,983.71
2017-10-29T05:41:40.848Z,983.76
2017-10-29T05:42:40.857Z,983.68
2017-10-29T05:43:40.842Z,983.8
2017-10-29T05:44:40.844Z,983.82
2017-10-29T05:45:40.843Z,983.78
2017-10-29T05:46:40.830Z,983.76
2017-10-29T05:47:40.834Z,983.85
2017-10-29T05:48:41.086Z,983.92
2017-10-29T05:49:40.821Z,983.82
2017-10-29T05:50:40.819Z,983.87
2017-10-29T05:51:40.819Z,983.91
2017-10-29T05:52:40.810Z,983.89
2017-10-29T05:53:40.808Z,983.81
2017-10-29T05:54:40.802Z,983.83
2017-10-29T05:55:40.798Z,983.85
2017-10-29T05:56:40.799Z,983.86
2017-10-29T05:57:40.798Z,983.85
2017-10-29T05:58:40.789Z,983.73
2017-10-29T05:59:40.789Z,983.77
2017-10-29T06:00:40.788Z,983.81
2017-10-29T06:01:40.780Z,983.68
2017-10-29T06:02:40.781Z,983.57
2017-10-29T06:03:40.772Z,983.42
2017-10-29T06:04:40.769Z,983.43
2017-10-29T06:05:40.765Z,983.39
2017-10-29T06:06:40.762Z,983.39
2017-10-29T06:07:40.761Z,983.23
2017-10-29T06:08:40.757Z,983.16
2017-10-29T06:09:40.751Z,982.93
2017-10-29T06:10:40.749Z,983.01
2017-10-29T06:11:40.746Z,982.75
2017-10-29T06:12:40.741Z,982.81
2017-10-29T06:13:40.738Z,982.84
2017-10-29T06:14:40.736Z,982.62
2017-10-29T06:15:40.736Z,982.91
2017-10-29T06:16:40.726Z,982.69
2017-10-29T06:17:40.726Z,982.77
2017-10-29T06:18:40.723Z,982.57
2017-10-29T06:19:40.718Z,982.59
2017-10-29T06:20:40.715Z,982.81
2017-10-29T06:21:40.712Z,982.87
2017-10-29T06:22:40.709Z,982.89
2017-10-29T06:23:40.704Z,983.04
2017-10-29T06:24:40.714Z,983.25
2017-10-29T06:25:40.700Z,983.2
2017-10-29T06:26:40.694Z,983.24
2017-10-29T06:27:40.691Z,983.25
2017-10-29T06:28:40.688Z,983.32
2017-10-29T06:29:40.686Z,983.45
2017-10-29T06:30:40.681Z,983.53
2017-10-29T06:31:40.678Z,983.49
2017-10-29T06:32:40.676Z,983.47
2017-10-29T06:33:40.673Z,983.56
2017-10-29T06:34:40.668Z,983.48
2017-10-29T06:35:40.665Z,983.46
2017-10-29T06:36:40.664Z,983.48
2017-10-29T06:37:40.659Z,983.54
2017-10-29T06:38:40.659Z,983.44
2017-10-29T06:39:40.658Z,983.47
2017-10-29T06:40:40.650Z,983.54
2017-10-29T06:41:40.656Z,983.55
2017-10-29T06:42:40.649Z,983.59
2017-10-29T06:43:40.641Z,983.54
2017-10-29T06:44:40.638Z,983.57
2017-10-29T06:45:40.634Z,983.58
2017-10-29T06:46:40.631Z,983.5
2017-10-29T06:47:40.638Z,983.48
2017-10-29T06:48:40.645Z,983.5
2017-10-29T06:49:40.624Z,983.45
2017-10-29T06:50:40.617Z,983.32
2017-10-29T06:51:40.617Z,983.46
2017-10-29T06:52:40.617Z,983.42
2017-10-29T06:53:40.611Z,983.45
2017-10-29T06:54:40.610Z,983.43
2017-10-29T06:55:40.607Z,983.42
2017-10-29T06:56:40.611Z,983.58
2017-10-29T06:57:40.604Z,983.51
2017-10-29T06:58:40.615Z,983.51
2017-10-29T06:59:40.695Z,983.55
2017-10-29T07:00:40.600Z,983.37
2017-10-29T07:01:40.596Z,983.5
2017-10-29T07:02:40.585Z,983.54
2017-10-29T07:03:40.582Z,983.52
2017-10-29T07:04:41.931Z,983.65
2017-10-29T07:05:40.576Z,983.6
2017-10-29T07:06:40.575Z,983.59
2017-10-29T07:07:40.574Z,983.63
2017-10-29T07:08:40.569Z,983.61
2017-10-29T07:09:40.566Z,983.72
2017-10-29T07:10:40.563Z,983.73
2017-10-29T07:11:40.560Z,983.86
2017-10-29T07:12:40.557Z,983.83
2017-10-29T07:13:40.555Z,983.7
2017-10-29T07:14:40.552Z,983.68
2017-10-29T07:15:40.549Z,983.71
2017-10-29T07:16:40.546Z,983.8
2017-10-29T07:17:40.549Z,983.68
2017-10-29T07:18:40.541Z,983.63
2017-10-29T07:19:40.539Z,983.71
2017-10-29T07:20:40.538Z,983.76
2017-10-29T07:21:40.534Z,983.81
2017-10-29T07:22:40.532Z,983.63
2017-10-29T07:23:40.531Z,983.71
2017-10-29T07:24:40.527Z,983.67
2017-10-29T07:25:40.524Z,983.74
2017-10-29T07:26:40.522Z,983.7
2017-10-29T07:27:40.529Z,983.72
2017-10-29T07:28:40.517Z,983.6
2017-10-29T07:29:40.515Z,983.77
2017-10-29T07:30:40.513Z,983.67
2017-10-29T07:31:40.510Z,983.67
2017-10-29T07:32:40.508Z,983.7
2017-10-29T07:33:40.505Z,983.68
2017-10-29T07:34:40.508Z,983.7
2017-10-29T07:35:40.505Z,983.73
2017-10-29T07:36:40.501Z,983.64
2017-10-29T07:37:40.498Z,983.68
2017-10-29T07:38:40.494Z,983.63
2017-10-29T07:39:40.492Z,983.58
2017-10-29T07:40:40.487Z,983.55
2017-10-29T07:41:40.488Z,983.49
2017-10-29T07:42:40.485Z,983.69
2017-10-29T07:43:40.483Z,983.59
2017-10-29T07:44:40.482Z,983.57
2017-10-29T07:45:40.477Z,983.48
2017-10-29T07:46:40.476Z,983.59
2017-10-29T07:47:40.474Z,983.5
2017-10-29T07:48:40.470Z,983.62
2017-10-29T07:49:40.469Z,983.56
2017-10-29T07:50:40.468Z,983.74
2017-10-29T07:51:40.464Z,983.57
2017-10-29T07:52:40.463Z,983.56
2017-10-29T07:53:40.462Z,983.55
2017-10-29T07:54:40.458Z,983.65
2017-10-29T07:55:40.462Z,983.53
2017-10-29T07:56:40.459Z,983.55
2017-10-29T07:57:40.462Z,983.55
2017-10-29T07:58:40.460Z,983.47
2017-10-29T07:59:40.459Z,983.69
2017-10-29T08:00:40.449Z,983.62
2017-10-29T08:01:40.449Z,983.51
2017-10-29T08:02:40.444Z,983.62
2017-10-29T08:03:40.441Z,983.58
2017-10-29T08:04:40.444Z,983.54
2017-10-29T08:05:40.441Z,983.6
2017-10-29T08:06:40.434Z,983.78
2017-10-29T08:07:40.433Z,983.65
2017-10-29T08:08:40.430Z,983.62
2017-10-29T08:09:40.433Z,983.66
2017-10-29T08:10:40.428Z,983.72
2017-10-29T08:11:40.424Z,983.69
2017-10-29T08:12:40.425Z,983.74
2017-10-29T08:13:40.421Z,983.68
2017-10-29T08:14:40.422Z,983.52
2017-10-29T08:15:40.417Z,983.62
2017-10-29T08:16:40.417Z,983.65
2017-10-29T08:17:40.413Z,983.65
2017-10-29T08:18:40.410Z,983.67
2017-10-29T08:19:40.412Z,983.53
2017-10-29T08:20:40.410Z,983.67
2017-10-29T08:21:40.405Z,983.72
2017-10-29T08:22:40.406Z,983.73
2017-10-29T08:23:40.403Z,983.77
2017-10-29T08:24:40.400Z,983.6
2017-10-29T08:25:40.400Z,983.68
2017-10-29T08:26:40.399Z,983.65
2017-10-29T08:27:40.396Z,983.64
2017-10-29T08:28:40.401Z,983.66
2017-10-29T08:29:40.395Z,983.7
2017-10-29T08:30:40.393Z,983.77
2017-10-29T08:31:40.390Z,983.92
2017-10-29T08:32:40.389Z,983.77
2017-10-29T08:33:40.389Z,983.82
2017-10-29T08:34:40.388Z,983.76
2017-10-29T08:35:40.585Z,983.81
2017-10-29T08:36:40.384Z,983.94
2017-10-29T08:37:40.382Z,983.78
2017-10-29T08:38:40.381Z,983.78
2017-10-29T08:39:40.382Z,983.98
2017-10-29T08:40:40.383Z,983.88
2017-10-29T08:41:40.376Z,983.83
2017-10-29T08:42:40.374Z,983.85
2017-10-29T08:43:40.373Z,983.93
2017-10-29T08:44:40.372Z,984.11
2017-10-29T08:45:40.375Z,983.95
2017-10-29T08:46:40.368Z,983.92
2017-10-29T08:47:40.369Z,983.98
2017-10-29T08:48:40.371Z,984.09
2017-10-29T08:49:40.372Z,984.03
2017-10-29T08:50:40.367Z,983.98
2017-10-29T08:51:40.366Z,983.93
2017-10-29T08:52:40.365Z,984.13
2017-10-29T08:53:40.362Z,984.06
2017-10-29T08:54:40.369Z,984.18
2017-10-29T08:55:40.359Z,984.08
2017-10-29T08:56:40.357Z,983.96
2017-10-29T08:57:40.355Z,984.05
2017-10-29T08:58:40.353Z,983.96
2017-10-29T08:59:40.354Z,984.05
2017-10-29T09:00:40.352Z,984.06
2017-10-29T09:01:40.352Z,984.18
2017-10-29T09:02:40.351Z,984.12
2017-10-29T09:03:40.348Z,984.18
2017-10-29T09:04:40.349Z,984.22
2017-10-29T09:05:43.852Z,984.25
2017-10-29T09:06:40.351Z,984.28
2017-10-29T09:07:40.347Z,984.21
2017-10-29T09:08:40.344Z,984.11
2017-10-29T09:09:40.343Z,984.16
2017-10-29T09:10:40.346Z,984.21
2017-10-29T09:11:40.339Z,984.26
2017-10-29T09:12:40.339Z,984.29
2017-10-29T09:13:40.338Z,984.25
2017-10-29T09:14:40.337Z,984.18
2017-10-29T09:15:40.346Z,984.41
2017-10-29T09:16:40.334Z,984.35
2017-10-29T09:17:40.338Z,984.43
2017-10-29T09:18:40.333Z,984.47
2017-10-29T09:19:40.330Z,984.48
2017-10-29T09:20:40.331Z,984.47
2017-10-29T09:21:40.340Z,984.54
2017-10-29T09:22:40.326Z,984.47
2017-10-29T09:23:40.330Z,984.52
2017-10-29T09:24:40.329Z,984.58
2017-10-29T09:25:40.322Z,984.6
2017-10-29T09:26:40.320Z,984.56
2017-10-29T09:27:40.319Z,984.56
2017-10-29T09:28:40.318Z,984.61
2017-10-29T09:29:40.322Z,984.75
2017-10-29T09:30:40.316Z,984.81
2017-10-29T09:31:40.314Z,984.83
2017-10-29T09:32:40.314Z,984.81
2017-10-29T09:33:40.328Z,984.7
2017-10-29T09:34:40.309Z,984.89
2017-10-29T09:35:40.308Z,984.94
2017-10-29T09:36:40.306Z,984.99
2017-10-29T09:37:40.304Z,985.16
2017-10-29T09:38:40.305Z,985.29
2017-10-29T09:39:40.298Z,985.46
2017-10-29T09:40:40.296Z,985.82
2017-10-29T09:41:40.292Z,985.66
2017-10-29T09:42:40.290Z,985.74
2017-10-29T09:43:40.288Z,986.05
2017-10-29T09:44:40.286Z,986.06
2017-10-29T09:45:40.287Z,986.17
2017-10-29T09:46:40.280Z,986.09
2017-10-29T09:47:40.278Z,986.19
2017-10-29T09:48:40.275Z,986.25
2017-10-29T09:49:40.272Z,986.25
2017-10-29T09:50:40.269Z,986.2
2017-10-29T09:51:40.266Z,986.28
2017-10-29T09:52:40.262Z,986.22
2017-10-29T09:53:40.260Z,986.23
2017-10-29T09:54:40.257Z,986.23
2017-10-29T09:55:40.255Z,986.26
2017-10-29T09:56:40.261Z,986.31
2017-10-29T09:57:40.252Z,986.34
2017-10-29T09:58:40.243Z,986.36
2017-10-29T09:59:40.239Z,986.35
2017-10-29T10:00:40.235Z,986.3
2017-10-29T10:01:40.231Z,986.28
2017-10-29T10:02:40.228Z,986.26
2017-10-29T10:03:40.224Z,986.3
2017-10-29T10:04:40.222Z,986.31
2017-10-29T10:05:40.222Z,986.29
2017-10-29T10:06:43.427Z,986.35
2017-10-29T10:07:40.210Z,986.4
2017-10-29T10:08:40.205Z,986.38
2017-10-29T10:09:40.203Z,986.44
2017-10-29T10:10:40.211Z,986.46
2017-10-29T10:11:40.193Z,986.46
2017-10-29T10:12:40.191Z,986.45
2017-10-29T10:13:40.201Z,986.54
2017-10-29T10:14:40.185Z,986.46
2017-10-29T10:15:40.186Z,986.58
2017-10-29T10:16:40.177Z,986.5
2017-10-29T10:17:40.171Z,986.53
2017-10-29T10:18:40.178Z,986.59
2017-10-29T10:19:40.167Z,986.59
2017-10-29T10:20:40.163Z,986.62
2017-10-29T10:21:40.157Z,986.57
2017-10-29T10:22:40.153Z,986.6
2017-10-29T10:23:40.162Z,986.62
2017-10-29T10:24:40.146Z,986.6
2017-10-29T10:25:40.157Z,986.66
2017-10-29T10:26:40.146Z,986.65
2017-10-29T10:27:40.137Z,986.63
2017-10-29T10:28:40.137Z,986.6
2017-10-29T10:29:40.132Z,986.65
2017-10-29T10:30:40.131Z,986.74
2017-10-29T10:31:40.208Z,986.74
2017-10-29T10:32:40.214Z,986.7
2017-10-29T10:33:40.228Z,986.75
2017-10-29T10:34:40.210Z,986.71
2017-10-29T10:35:40.304Z,986.76
2017-10-29T10:36:40.327Z,986.7
2017-10-29T10:37:40.236Z,986.76
2017-10-29T10:38:40.235Z,986.71
2017-10-29T10:39:40.248Z,986.83
2017-10-29T10:40:40.192Z,986.76
2017-10-29T10:41:40.129Z,986.76
2017-10-29T10:42:40.398Z,986.75
2017-10-29T10:43:40.280Z,986.78
2017-10-29T10:44:40.107Z,986.85
2017-10-29T10:45:40.104Z,986.82
2017-10-29T10:46:40.248Z,986.84
2017-10-29T10:47:40.236Z,986.88
2017-10-29T10:48:40.261Z,986.86
2017-10-29T10:49:40.158Z,986.85
2017-10-29T10:50:40.062Z,986.85
2017-10-29T10:51:40.222Z,986.85
2017-10-29T10:52:40.248Z,986.88
2017-10-29T10:53:40.157Z,986.82
2017-10-29T10:54:40.314Z,986.92
2017-10-29T10:55:40.419Z,986.91
2017-10-29T10:56:40.174Z,986.85
2017-10-29T10:57:40.160Z,986.86
2017-10-29T10:58:40.244Z,986.84
2017-10-29T10:59:40.391Z,986.92
2017-10-29T11:00:40.100Z,986.85
2017-10-29T11:01:40.240Z,986.91
2017-10-29T11:02:40.213Z,986.86
2017-10-29T11:03:40.398Z,986.78
2017-10-29T11:04:40.226Z,986.76
2017-10-29T11:05:40.165Z,986.8
2017-10-29T11:06:40.298Z,986.75
2017-10-29T11:07:40.042Z,986.83
2017-10-29T11:08:40.140Z,986.91
2017-10-29T11:09:40.023Z,986.85
2017-10-29T11:10:40.091Z,986.91
2017-10-29T11:11:40.009Z,986.91
2017-10-29T11:12:39.995Z,986.86
2017-10-29T11:13:39.996Z,986.89
2017-10-29T11:14:39.995Z,986.94
2017-10-29T11:15:39.996Z,986.98
2017-10-29T11:16:39.983Z,986.98
2017-10-29T11:17:40.016Z,986.98
2017-10-29T11:18:39.980Z,987.05
2017-10-29T11:19:39.991Z,987.16
2017-10-29T11:20:39.971Z,987.19
2017-10-29T11:21:39.968Z,987.23
2017-10-29T11:22:39.966Z,987.2
2017-10-29T11:23:39.965Z,987.13
2017-10-29T11:24:39.962Z,987.21
2017-10-29T11:25:39.959Z,987.16
2017-10-29T11:26:39.956Z,987.2
2017-10-29T11:27:39.956Z,987.18
2017-10-29T11:28:39.949Z,987.16
2017-10-29T11:29:39.950Z,987.26
2017-10-29T11:30:39.945Z,987.32
2017-10-29T11:31:39.947Z,987.34
2017-10-29T11:32:39.947Z,987.37
2017-10-29T11:33:39.953Z,987.31
2017-10-29T11:34:39.949Z,987.33
2017-10-29T11:35:39.935Z,987.27
2017-10-29T11:36:39.933Z,987.27
2017-10-29T11:37:39.930Z,987.25
2017-10-29T11:38:40.227Z,987.2
2017-10-29T11:39:39.927Z,987.27
2017-10-29T11:40:39.925Z,987.25
2017-10-29T11:41:39.921Z,987.21
2017-10-29T11:42:39.919Z,987.25
2017-10-29T11:43:39.920Z,987.25
2017-10-29T11:44:39.915Z,987.26
2017-10-29T11:45:39.912Z,987.27
2017-10-29T11:46:39.911Z,987.24
2017-10-29T11:47:39.910Z,987.33
2017-10-29T11:48:39.910Z,987.3
2017-10-29T11:49:39.906Z,987.33
2017-10-29T11:50:39.906Z,987.39
2017-10-29T11:51:39.901Z,987.37
2017-10-29T11:52:39.929Z,987.37
2017-10-29T11:53:39.897Z,987.36
2017-10-29T11:54:39.895Z,987.37
2017-10-29T11:55:39.893Z,987.4
2017-10-29T11:56:39.891Z,987.41
2017-10-29T11:57:39.887Z,987.38
2017-10-29T11:58:39.888Z,987.44
2017-10-29T11:59:39.885Z,987.39
2017-10-29T12:00:39.885Z,987.35
2017-10-29T12:01:39.885Z,987.3
2017-10-29T12:02:39.881Z,987.33
2017-10-29T12:03:39.876Z,987.34
2017-10-29T12:04:39.875Z,987.41
2017-10-29T12:05:39.879Z,987.42
2017-10-29T12:06:39.873Z,987.41
2017-10-29T12:07:39.870Z,987.46
2017-10-29T12:08:39.868Z,987.51
2017-10-29T12:09:39.869Z,987.46
2017-10-29T12:10:39.864Z,987.48
2017-10-29T12:11:39.863Z,987.46
2017-10-29T12:12:39.870Z,987.47
2017-10-29T12:13:39.864Z,987.57
2017-10-29T12:14:39.858Z,987.58
2017-10-29T12:15:39.855Z,987.52
2017-10-29T12:16:39.854Z,987.49
2017-10-29T12:17:39.852Z,987.52
2017-10-29T12:18:39.850Z,987.55
2017-10-29T12:19:39.856Z,987.62
2017-10-29T12:20:39.849Z,987.65
2017-10-29T12:21:39.844Z,987.66
2017-10-29T12:22:39.850Z,987.61
2017-10-29T12:23:39.881Z,987.63
2017-10-29T12:24:39.988Z,987.64
2017-10-29T12:25:39.861Z,987.64
2017-10-29T12:26:39.849Z,987.61
2017-10-29T12:27:39.836Z,987.62
2017-10-29T12:28:39.835Z,987.61
2017-10-29T12:29:39.829Z,987.64
2017-10-29T12:30:39.831Z,987.67